sensor_id;sensor_type;location;lat;lon;timestamp;P1;durP1;ratioP1;P2;durP2;ratioP2
36725;SDS011;44936;52.086;5.150;2022-09-02T00:00:58;0.10;;;0.10;;
36725;SDS011;44936;52.086;5.150;2022-09-02T00:03:29;1.60;;;0.30;;
36725;SDS011;44936;52.086;5.150;2022-09-02T00:05:57;0.10;;;0.10;;
36725;SDS011;44936;52.086;5.150;2022-09-02T00:08:22;0.40;;;0.10;;
36725;SDS011;44936;52.086;5.150;2022-09-02T00:10:48;0.67;;;0.50;;
36725;SDS011;44936;52.086;5.150;2022-09-02T00:13:14;0.60;;;0.28;;
36725;SDS011;44936;52.086;5.150;2022-09-02T00:15:40;0.30;;;0.20;;
36725;SDS011;44936;52.086;5.150;2022-09-02T00:18:06;0.55;;;0.55;;
36725;SDS011;44936;52.086;5.150;2022-09-02T00:20:37;1.35;;;0.30;;
36725;SDS011;44936;52.086;5.150;2022-09-02T00:23:02;1.15;;;0.40;;
36725;SDS011;44936;52.086;5.150;2022-09-02T00:25:28;0.70;;;0.50;;
36725;SDS011;44936;52.086;5.150;2022-09-02T00:27:53;0.80;;;0.30;;
36725;SDS011;44936;52.086;5.150;2022-09-02T00:30:18;0.30;;;0.30;;
36725;SDS011;44936;52.086;5.150;2022-09-02T00:32:44;1.52;;;0.30;;
36725;SDS011;44936;52.086;5.150;2022-09-02T00:35:09;0.23;;;0.20;;
36725;SDS011;44936;52.086;5.150;2022-09-02T00:37:35;0.10;;;0.10;;
36725;SDS011;44936;52.086;5.150;2022-09-02T00:40:00;0.80;;;0.20;;
36725;SDS011;44936;52.086;5.150;2022-09-02T00:42:25;0.40;;;0.25;;
36725;SDS011;44936;52.086;5.150;2022-09-02T00:44:54;0.20;;;0.20;;
36725;SDS011;44936;52.086;5.150;2022-09-02T00:47:19;1.27;;;0.30;;
36725;SDS011;44936;52.086;5.150;2022-09-02T00:49:47;0.28;;;0.28;;
36725;SDS011;44936;52.086;5.150;2022-09-02T00:52:21;0.43;;;0.28;;
36725;SDS011;44936;52.086;5.150;2022-09-02T00:54:52;2.47;;;0.30;;
36725;SDS011;44936;52.086;5.150;2022-09-02T00:57:19;0.20;;;0.20;;
36725;SDS011;44936;52.086;5.150;2022-09-02T01:02:17;1.38;;;0.40;;
36725;SDS011;44936;52.086;5.150;2022-09-02T01:04:42;0.32;;;0.20;;
36725;SDS011;44936;52.086;5.150;2022-09-02T01:07:10;1.70;;;0.55;;
36725;SDS011;44936;52.086;5.150;2022-09-02T01:09:36;1.50;;;0.52;;
36725;SDS011;44936;52.086;5.150;2022-09-02T01:12:02;0.70;;;0.40;;
36725;SDS011;44936;52.086;5.150;2022-09-02T01:14:27;0.57;;;0.40;;
36725;SDS011;44936;52.086;5.150;2022-09-02T01:16:54;1.00;;;0.60;;
36725;SDS011;44936;52.086;5.150;2022-09-02T01:19:21;0.43;;;0.28;;
36725;SDS011;44936;52.086;5.150;2022-09-02T01:21:48;0.98;;;0.20;;
36725;SDS011;44936;52.086;5.150;2022-09-02T01:24:14;2.22;;;0.30;;
36725;SDS011;44936;52.086;5.150;2022-09-02T01:26:39;0.52;;;0.30;;
36725;SDS011;44936;52.086;5.150;2022-09-02T01:29:05;0.10;;;0.10;;
36725;SDS011;44936;52.086;5.150;2022-09-02T01:31:30;0.47;;;0.30;;
36725;SDS011;44936;52.086;5.150;2022-09-02T01:33:55;0.40;;;0.10;;
36725;SDS011;44936;52.086;5.150;2022-09-02T01:36:22;0.10;;;0.10;;
36725;SDS011;44936;52.086;5.150;2022-09-02T01:38:47;3.42;;;0.30;;
36725;SDS011;44936;52.086;5.150;2022-09-02T01:41:12;0.13;;;0.13;;
36725;SDS011;44936;52.086;5.150;2022-09-02T01:43:37;0.30;;;0.20;;
36725;SDS011;44936;52.086;5.150;2022-09-02T01:46:03;0.20;;;0.13;;
36725;SDS011;44936;52.086;5.150;2022-09-02T01:48:28;0.13;;;0.13;;
36725;SDS011;44936;52.086;5.150;2022-09-02T01:50:55;0.20;;;0.20;;
36725;SDS011;44936;52.086;5.150;2022-09-02T01:53:21;0.40;;;0.17;;
36725;SDS011;44936;52.086;5.150;2022-09-02T01:55:46;1.23;;;0.25;;
36725;SDS011;44936;52.086;5.150;2022-09-02T01:58:12;0.55;;;0.20;;
36725;SDS011;44936;52.086;5.150;2022-09-02T02:00:37;0.73;;;0.30;;
36725;SDS011;44936;52.086;5.150;2022-09-02T02:03:02;0.77;;;0.20;;
36725;SDS011;44936;52.086;5.150;2022-09-02T02:05:28;0.20;;;0.20;;
36725;SDS011;44936;52.086;5.150;2022-09-02T02:07:53;0.40;;;0.20;;
36725;SDS011;44936;52.086;5.150;2022-09-02T02:10:19;0.38;;;0.38;;
36725;SDS011;44936;52.086;5.150;2022-09-02T02:12:44;1.08;;;0.40;;
36725;SDS011;44936;52.086;5.150;2022-09-02T02:15:11;0.37;;;0.30;;
36725;SDS011;44936;52.086;5.150;2022-09-02T02:17:36;0.35;;;0.20;;
36725;SDS011;44936;52.086;5.150;2022-09-02T02:20:02;0.67;;;0.50;;
36725;SDS011;44936;52.086;5.150;2022-09-02T02:22:28;0.20;;;0.20;;
36725;SDS011;44936;52.086;5.150;2022-09-02T02:24:55;0.20;;;0.10;;
36725;SDS011;44936;52.086;5.150;2022-09-02T02:27:20;0.40;;;0.17;;
36725;SDS011;44936;52.086;5.150;2022-09-02T02:29:46;0.93;;;0.20;;
36725;SDS011;44936;52.086;5.150;2022-09-02T02:32:11;0.23;;;0.20;;
36725;SDS011;44936;52.086;5.150;2022-09-02T02:34:36;0.65;;;0.28;;
36725;SDS011;44936;52.086;5.150;2022-09-02T02:37:02;1.17;;;0.30;;
36725;SDS011;44936;52.086;5.150;2022-09-02T02:39:28;0.20;;;0.20;;
36725;SDS011;44936;52.086;5.150;2022-09-02T02:41:53;1.60;;;0.20;;
36725;SDS011;44936;52.086;5.150;2022-09-02T02:44:18;0.37;;;0.23;;
36725;SDS011;44936;52.086;5.150;2022-09-02T02:46:43;0.45;;;0.40;;
36725;SDS011;44936;52.086;5.150;2022-09-02T02:49:09;0.30;;;0.30;;
36725;SDS011;44936;52.086;5.150;2022-09-02T02:51:34;2.45;;;0.35;;
36725;SDS011;44936;52.086;5.150;2022-09-02T02:54:02;0.50;;;0.35;;
36725;SDS011;44936;52.086;5.150;2022-09-02T02:56:28;0.30;;;0.30;;
36725;SDS011;44936;52.086;5.150;2022-09-02T02:58:54;0.40;;;0.30;;
36725;SDS011;44936;52.086;5.150;2022-09-02T03:01:20;0.25;;;0.25;;
36725;SDS011;44936;52.086;5.150;2022-09-02T03:03:45;0.20;;;0.20;;
36725;SDS011;44936;52.086;5.150;2022-09-02T03:06:10;0.50;;;0.40;;
36725;SDS011;44936;52.086;5.150;2022-09-02T03:08:35;1.90;;;0.40;;
36725;SDS011;44936;52.086;5.150;2022-09-02T03:11:01;0.15;;;0.15;;
36725;SDS011;44936;52.086;5.150;2022-09-02T03:13:30;0.57;;;0.30;;
36725;SDS011;44936;52.086;5.150;2022-09-02T03:15:55;1.10;;;0.30;;
36725;SDS011;44936;52.086;5.150;2022-09-02T03:18:20;1.63;;;0.37;;
36725;SDS011;44936;52.086;5.150;2022-09-02T03:20:46;0.73;;;0.32;;
36725;SDS011;44936;52.086;5.150;2022-09-02T03:23:11;0.37;;;0.20;;
36725;SDS011;44936;52.086;5.150;2022-09-02T03:25:37;0.55;;;0.30;;
36725;SDS011;44936;52.086;5.150;2022-09-02T03:28:02;0.20;;;0.20;;
36725;SDS011;44936;52.086;5.150;2022-09-02T03:30:28;2.00;;;0.30;;
36725;SDS011;44936;52.086;5.150;2022-09-02T03:32:55;0.15;;;0.15;;
36725;SDS011;44936;52.086;5.150;2022-09-02T03:35:20;0.30;;;0.30;;
36725;SDS011;44936;52.086;5.150;2022-09-02T03:37:46;0.35;;;0.22;;
36725;SDS011;44936;52.086;5.150;2022-09-02T03:40:13;0.30;;;0.30;;
36725;SDS011;44936;52.086;5.150;2022-09-02T03:42:38;2.35;;;0.30;;
36725;SDS011;44936;52.086;5.150;2022-09-02T03:45:05;0.25;;;0.25;;
36725;SDS011;44936;52.086;5.150;2022-09-02T03:47:31;4.43;;;0.30;;
36725;SDS011;44936;52.086;5.150;2022-09-02T03:49:57;1.50;;;0.30;;
36725;SDS011;44936;52.086;5.150;2022-09-02T03:52:23;0.20;;;0.20;;
36725;SDS011;44936;52.086;5.150;2022-09-02T03:54:48;0.40;;;0.40;;
36725;SDS011;44936;52.086;5.150;2022-09-02T03:57:13;1.48;;;0.60;;
36725;SDS011;44936;52.086;5.150;2022-09-02T03:59:39;0.20;;;0.20;;
36725;SDS011;44936;52.086;5.150;2022-09-02T04:02:04;0.70;;;0.30;;
36725;SDS011;44936;52.086;5.150;2022-09-02T04:04:30;0.17;;;0.17;;
36725;SDS011;44936;52.086;5.150;2022-09-02T04:06:55;0.87;;;0.30;;
36725;SDS011;44936;52.086;5.150;2022-09-02T04:09:21;1.70;;;0.30;;
36725;SDS011;44936;52.086;5.150;2022-09-02T04:11:46;0.20;;;0.20;;
36725;SDS011;44936;52.086;5.150;2022-09-02T04:14:11;0.28;;;0.28;;
36725;SDS011;44936;52.086;5.150;2022-09-02T04:16:37;0.88;;;0.38;;
36725;SDS011;44936;52.086;5.150;2022-09-02T04:19:03;1.23;;;0.32;;
36725;SDS011;44936;52.086;5.150;2022-09-02T04:21:30;0.20;;;0.20;;
36725;SDS011;44936;52.086;5.150;2022-09-02T04:23:56;0.65;;;0.30;;
36725;SDS011;44936;52.086;5.150;2022-09-02T04:26:22;2.53;;;0.43;;
36725;SDS011;44936;52.086;5.150;2022-09-02T04:28:47;0.47;;;0.20;;
36725;SDS011;44936;52.086;5.150;2022-09-02T04:31:14;0.40;;;0.40;;
36725;SDS011;44936;52.086;5.150;2022-09-02T04:33:40;3.50;;;0.63;;
36725;SDS011;44936;52.086;5.150;2022-09-02T04:36:06;1.88;;;0.43;;
36725;SDS011;44936;52.086;5.150;2022-09-02T04:38:32;0.85;;;0.50;;
36725;SDS011;44936;52.086;5.150;2022-09-02T04:40:57;0.55;;;0.50;;
36725;SDS011;44936;52.086;5.150;2022-09-02T04:43:23;0.40;;;0.40;;
36725;SDS011;44936;52.086;5.150;2022-09-02T04:45:49;0.80;;;0.35;;
36725;SDS011;44936;52.086;5.150;2022-09-02T04:48:14;0.50;;;0.40;;
36725;SDS011;44936;52.086;5.150;2022-09-02T04:50:40;0.30;;;0.20;;
36725;SDS011;44936;52.086;5.150;2022-09-02T04:53:05;0.43;;;0.25;;
36725;SDS011;44936;52.086;5.150;2022-09-02T04:55:31;0.20;;;0.20;;
36725;SDS011;44936;52.086;5.150;2022-09-02T04:57:57;0.40;;;0.38;;
36725;SDS011;44936;52.086;5.150;2022-09-02T05:00:22;0.93;;;0.57;;
36725;SDS011;44936;52.086;5.150;2022-09-02T05:02:48;0.82;;;0.43;;
36725;SDS011;44936;52.086;5.150;2022-09-02T05:05:13;0.77;;;0.75;;
36725;SDS011;44936;52.086;5.150;2022-09-02T05:07:39;0.90;;;0.35;;
36725;SDS011;44936;52.086;5.150;2022-09-02T05:10:04;0.82;;;0.20;;
36725;SDS011;44936;52.086;5.150;2022-09-02T05:12:30;0.38;;;0.20;;
36725;SDS011;44936;52.086;5.150;2022-09-02T05:14:56;1.45;;;0.30;;
36725;SDS011;44936;52.086;5.150;2022-09-02T05:17:24;0.47;;;0.30;;
36725;SDS011;44936;52.086;5.150;2022-09-02T05:19:50;1.27;;;0.20;;
36725;SDS011;44936;52.086;5.150;2022-09-02T05:22:16;0.47;;;0.30;;
36725;SDS011;44936;52.086;5.150;2022-09-02T05:24:41;1.02;;;0.40;;
36725;SDS011;44936;52.086;5.150;2022-09-02T05:27:08;0.40;;;0.40;;
36725;SDS011;44936;52.086;5.150;2022-09-02T05:29:33;0.93;;;0.30;;
36725;SDS011;44936;52.086;5.150;2022-09-02T05:31:59;1.08;;;0.43;;
36725;SDS011;44936;52.086;5.150;2022-09-02T05:34:24;1.63;;;0.40;;
36725;SDS011;44936;52.086;5.150;2022-09-02T05:36:50;0.20;;;0.20;;
36725;SDS011;44936;52.086;5.150;2022-09-02T05:39:15;0.30;;;0.30;;
36725;SDS011;44936;52.086;5.150;2022-09-02T05:41:40;0.40;;;0.40;;
36725;SDS011;44936;52.086;5.150;2022-09-02T05:44:06;2.30;;;0.40;;
36725;SDS011;44936;52.086;5.150;2022-09-02T05:46:31;2.95;;;0.28;;
36725;SDS011;44936;52.086;5.150;2022-09-02T05:48:57;0.43;;;0.43;;
36725;SDS011;44936;52.086;5.150;2022-09-02T05:51:42;0.43;;;0.20;;
36725;SDS011;44936;52.086;5.150;2022-09-02T05:54:21;0.20;;;0.20;;
36725;SDS011;44936;52.086;5.150;2022-09-02T05:56:48;0.85;;;0.32;;
36725;SDS011;44936;52.086;5.150;2022-09-02T05:59:13;2.35;;;0.30;;
36725;SDS011;44936;52.086;5.150;2022-09-02T06:01:39;0.30;;;0.25;;
36725;SDS011;44936;52.086;5.150;2022-09-02T06:04:04;2.05;;;0.30;;
36725;SDS011;44936;52.086;5.150;2022-09-02T06:06:30;0.25;;;0.17;;
36725;SDS011;44936;52.086;5.150;2022-09-02T06:08:56;0.68;;;0.28;;
36725;SDS011;44936;52.086;5.150;2022-09-02T06:11:22;0.68;;;0.50;;
36725;SDS011;44936;52.086;5.150;2022-09-02T06:13:47;0.38;;;0.30;;
36725;SDS011;44936;52.086;5.150;2022-09-02T06:16:16;1.25;;;0.50;;
36725;SDS011;44936;52.086;5.150;2022-09-02T06:18:43;0.93;;;0.40;;
36725;SDS011;44936;52.086;5.150;2022-09-02T06:21:08;0.40;;;0.30;;
36725;SDS011;44936;52.086;5.150;2022-09-02T06:23:35;0.63;;;0.22;;
36725;SDS011;44936;52.086;5.150;2022-09-02T06:26:00;0.40;;;0.25;;
36725;SDS011;44936;52.086;5.150;2022-09-02T06:28:25;0.73;;;0.40;;
36725;SDS011;44936;52.086;5.150;2022-09-02T06:30:51;0.50;;;0.40;;
36725;SDS011;44936;52.086;5.150;2022-09-02T06:33:16;0.65;;;0.20;;
36725;SDS011;44936;52.086;5.150;2022-09-02T06:35:42;1.65;;;0.20;;
36725;SDS011;44936;52.086;5.150;2022-09-02T06:38:08;0.20;;;0.20;;
36725;SDS011;44936;52.086;5.150;2022-09-02T06:40:35;1.30;;;0.45;;
36725;SDS011;44936;52.086;5.150;2022-09-02T06:43:01;0.10;;;0.10;;
36725;SDS011;44936;52.086;5.150;2022-09-02T06:45:26;0.32;;;0.22;;
36725;SDS011;44936;52.086;5.150;2022-09-02T06:47:54;0.90;;;0.40;;
36725;SDS011;44936;52.086;5.150;2022-09-02T06:50:24;0.45;;;0.20;;
36725;SDS011;44936;52.086;5.150;2022-09-02T06:52:49;3.93;;;0.40;;
36725;SDS011;44936;52.086;5.150;2022-09-02T06:55:14;0.55;;;0.38;;
36725;SDS011;44936;52.086;5.150;2022-09-02T06:57:41;1.55;;;0.30;;
36725;SDS011;44936;52.086;5.150;2022-09-02T07:00:08;0.67;;;0.43;;
36725;SDS011;44936;52.086;5.150;2022-09-02T07:02:33;0.25;;;0.25;;
36725;SDS011;44936;52.086;5.150;2022-09-02T07:04:59;3.40;;;0.45;;
36725;SDS011;44936;52.086;5.150;2022-09-02T07:07:40;0.30;;;0.20;;
36725;SDS011;44936;52.086;5.150;2022-09-02T07:10:07;0.30;;;0.30;;
36725;SDS011;44936;52.086;5.150;2022-09-02T07:12:33;2.08;;;0.55;;
36725;SDS011;44936;52.086;5.150;2022-09-02T07:14:59;2.15;;;0.30;;
36725;SDS011;44936;52.086;5.150;2022-09-02T07:17:24;0.83;;;0.33;;
36725;SDS011;44936;52.086;5.150;2022-09-02T07:19:49;2.83;;;0.50;;
36725;SDS011;44936;52.086;5.150;2022-09-02T07:22:15;0.43;;;0.40;;
36725;SDS011;44936;52.086;5.150;2022-09-02T07:24:40;1.10;;;0.30;;
36725;SDS011;44936;52.086;5.150;2022-09-02T07:27:06;0.45;;;0.20;;
36725;SDS011;44936;52.086;5.150;2022-09-02T07:29:32;0.95;;;0.35;;
36725;SDS011;44936;52.086;5.150;2022-09-02T07:31:57;0.30;;;0.30;;
36725;SDS011;44936;52.086;5.150;2022-09-02T07:34:23;0.85;;;0.40;;
36725;SDS011;44936;52.086;5.150;2022-09-02T07:36:48;0.27;;;0.27;;
36725;SDS011;44936;52.086;5.150;2022-09-02T07:39:14;0.77;;;0.38;;
36725;SDS011;44936;52.086;5.150;2022-09-02T07:41:40;0.30;;;0.20;;
36725;SDS011;44936;52.086;5.150;2022-09-02T07:44:05;0.22;;;0.22;;
36725;SDS011;44936;52.086;5.150;2022-09-02T07:46:31;0.22;;;0.22;;
36725;SDS011;44936;52.086;5.150;2022-09-02T07:48:58;0.98;;;0.40;;
36725;SDS011;44936;52.086;5.150;2022-09-02T07:51:31;0.80;;;0.40;;
36725;SDS011;44936;52.086;5.150;2022-09-02T07:53:57;1.60;;;0.40;;
36725;SDS011;44936;52.086;5.150;2022-09-02T07:56:22;1.65;;;0.43;;
36725;SDS011;44936;52.086;5.150;2022-09-02T07:58:47;0.37;;;0.37;;
36725;SDS011;44936;52.086;5.150;2022-09-02T08:01:14;0.32;;;0.30;;
36725;SDS011;44936;52.086;5.150;2022-09-02T08:03:40;0.25;;;0.25;;
36725;SDS011;44936;52.086;5.150;2022-09-02T08:06:06;3.78;;;0.50;;
36725;SDS011;44936;52.086;5.150;2022-09-02T08:08:31;0.30;;;0.30;;
36725;SDS011;44936;52.086;5.150;2022-09-02T08:10:57;2.60;;;0.40;;
36725;SDS011;44936;52.086;5.150;2022-09-02T08:13:22;2.38;;;0.50;;
36725;SDS011;44936;52.086;5.150;2022-09-02T08:15:48;0.38;;;0.30;;
36725;SDS011;44936;52.086;5.150;2022-09-02T08:18:13;0.40;;;0.40;;
36725;SDS011;44936;52.086;5.150;2022-09-02T08:20:38;0.70;;;0.40;;
36725;SDS011;44936;52.086;5.150;2022-09-02T08:23:04;0.43;;;0.43;;
36725;SDS011;44936;52.086;5.150;2022-09-02T08:25:33;5.13;;;0.40;;
36725;SDS011;44936;52.086;5.150;2022-09-02T08:27:58;4.70;;;0.52;;
36725;SDS011;44936;52.086;5.150;2022-09-02T08:30:24;1.23;;;0.20;;
36725;SDS011;44936;52.086;5.150;2022-09-02T08:32:49;1.15;;;0.47;;
36725;SDS011;44936;52.086;5.150;2022-09-02T08:35:18;0.83;;;0.33;;
36725;SDS011;44936;52.086;5.150;2022-09-02T08:37:43;0.55;;;0.35;;
36725;SDS011;44936;52.086;5.150;2022-09-02T08:40:18;0.40;;;0.40;;
36725;SDS011;44936;52.086;5.150;2022-09-02T08:42:49;0.30;;;0.30;;
36725;SDS011;44936;52.086;5.150;2022-09-02T08:47:54;1.20;;;0.35;;
36725;SDS011;44936;52.086;5.150;2022-09-02T08:50:22;0.20;;;0.20;;
36725;SDS011;44936;52.086;5.150;2022-09-02T08:52:54;0.30;;;0.30;;
36725;SDS011;44936;52.086;5.150;2022-09-02T08:55:22;2.00;;;0.52;;
36725;SDS011;44936;52.086;5.150;2022-09-02T08:57:50;2.00;;;0.70;;
36725;SDS011;44936;52.086;5.150;2022-09-02T09:00:15;0.85;;;0.47;;
36725;SDS011;44936;52.086;5.150;2022-09-02T09:02:48;1.23;;;0.50;;
36725;SDS011;44936;52.086;5.150;2022-09-02T09:05:55;0.75;;;0.40;;
36725;SDS011;44936;52.086;5.150;2022-09-02T09:18:19;1.15;;;0.55;;
36725;SDS011;44936;52.086;5.150;2022-09-02T09:20:45;0.93;;;0.40;;
36725;SDS011;44936;52.086;5.150;2022-09-02T09:23:43;0.63;;;0.40;;
36725;SDS011;44936;52.086;5.150;2022-09-02T09:26:12;0.60;;;0.50;;
36725;SDS011;44936;52.086;5.150;2022-09-02T09:28:41;0.70;;;0.50;;
36725;SDS011;44936;52.086;5.150;2022-09-02T09:31:18;0.40;;;0.40;;
36725;SDS011;44936;52.086;5.150;2022-09-02T09:39:18;1.35;;;0.63;;
36725;SDS011;44936;52.086;5.150;2022-09-02T09:41:44;1.58;;;0.52;;
36725;SDS011;44936;52.086;5.150;2022-09-02T09:44:09;2.90;;;0.45;;
36725;SDS011;44936;52.086;5.150;2022-09-02T09:46:34;1.40;;;0.50;;
36725;SDS011;44936;52.086;5.150;2022-09-02T09:49:00;1.00;;;0.80;;
36725;SDS011;44936;52.086;5.150;2022-09-02T09:51:25;2.75;;;0.40;;
36725;SDS011;44936;52.086;5.150;2022-09-02T09:53:50;0.43;;;0.40;;
36725;SDS011;44936;52.086;5.150;2022-09-02T09:58:45;0.63;;;0.47;;
36725;SDS011;44936;52.086;5.150;2022-09-02T10:03:36;0.75;;;0.50;;
36725;SDS011;44936;52.086;5.150;2022-09-02T10:08:50;0.80;;;0.40;;
36725;SDS011;44936;52.086;5.150;2022-09-02T10:11:23;1.13;;;0.60;;
36725;SDS011;44936;52.086;5.150;2022-09-02T10:13:49;3.33;;;0.70;;
36725;SDS011;44936;52.086;5.150;2022-09-02T10:26:45;2.15;;;0.43;;
36725;SDS011;44936;52.086;5.150;2022-09-02T10:29:32;2.30;;;0.85;;
36725;SDS011;44936;52.086;5.150;2022-09-02T10:34:33;1.25;;;0.47;;
36725;SDS011;44936;52.086;5.150;2022-09-02T10:37:20;1.00;;;0.47;;
36725;SDS011;44936;52.086;5.150;2022-09-02T10:42:18;0.63;;;0.50;;
36725;SDS011;44936;52.086;5.150;2022-09-02T10:47:19;0.60;;;0.38;;
36725;SDS011;44936;52.086;5.150;2022-09-02T10:50:01;1.05;;;0.60;;
36725;SDS011;44936;52.086;5.150;2022-09-02T10:57:51;0.60;;;0.60;;
36725;SDS011;44936;52.086;5.150;2022-09-02T11:00:18;0.75;;;0.50;;
36725;SDS011;44936;52.086;5.150;2022-09-02T11:02:59;0.93;;;0.55;;
36725;SDS011;44936;52.086;5.150;2022-09-02T11:10:51;0.45;;;0.40;;
36725;SDS011;44936;52.086;5.150;2022-09-02T11:13:30;1.02;;;0.57;;
36725;SDS011;44936;52.086;5.150;2022-09-02T11:16:05;0.93;;;0.50;;
36725;SDS011;44936;52.086;5.150;2022-09-02T11:18:33;0.60;;;0.57;;
36725;SDS011;44936;52.086;5.150;2022-09-02T11:21:04;0.50;;;0.45;;
36725;SDS011;44936;52.086;5.150;2022-09-02T11:23:37;3.25;;;0.50;;
36725;SDS011;44936;52.086;5.150;2022-09-02T11:26:15;0.68;;;0.60;;
36725;SDS011;44936;52.086;5.150;2022-09-02T11:28:52;0.98;;;0.70;;
36725;SDS011;44936;52.086;5.150;2022-09-02T11:36:47;0.50;;;0.50;;
36725;SDS011;44936;52.086;5.150;2022-09-02T11:39:16;1.23;;;0.60;;
36725;SDS011;44936;52.086;5.150;2022-09-02T11:49:10;1.27;;;0.63;;
36725;SDS011;44936;52.086;5.150;2022-09-02T11:54:10;1.17;;;0.60;;
36725;SDS011;44936;52.086;5.150;2022-09-02T11:56:37;4.07;;;1.15;;
36725;SDS011;44936;52.086;5.150;2022-09-02T11:59:04;3.40;;;0.60;;
36725;SDS011;44936;52.086;5.150;2022-09-02T12:01:32;1.45;;;0.55;;
36725;SDS011;44936;52.086;5.150;2022-09-02T12:04:06;1.20;;;0.63;;
36725;SDS011;44936;52.086;5.150;2022-09-02T12:09:47;2.03;;;0.70;;
36725;SDS011;44936;52.086;5.150;2022-09-02T12:20:02;0.70;;;0.68;;
36725;SDS011;44936;52.086;5.150;2022-09-02T12:22:31;1.58;;;0.52;;
36725;SDS011;44936;52.086;5.150;2022-09-02T12:24:57;0.85;;;0.52;;
36725;SDS011;44936;52.086;5.150;2022-09-02T12:27:24;1.17;;;0.68;;
36725;SDS011;44936;52.086;5.150;2022-09-02T12:29:50;1.63;;;0.90;;
36725;SDS011;44936;52.086;5.150;2022-09-02T12:35:08;0.68;;;0.50;;
36725;SDS011;44936;52.086;5.150;2022-09-02T12:37:54;0.43;;;0.43;;
36725;SDS011;44936;52.086;5.150;2022-09-02T12:40:22;0.65;;;0.60;;
36725;SDS011;44936;52.086;5.150;2022-09-02T12:42:49;1.00;;;0.50;;
36725;SDS011;44936;52.086;5.150;2022-09-02T12:45:22;1.05;;;0.43;;
36725;SDS011;44936;52.086;5.150;2022-09-02T12:48:09;2.05;;;0.65;;
36725;SDS011;44936;52.086;5.150;2022-09-02T12:53:23;0.63;;;0.28;;
36725;SDS011;44936;52.086;5.150;2022-09-02T12:55:56;0.50;;;0.50;;
36725;SDS011;44936;52.086;5.150;2022-09-02T12:58:22;0.60;;;0.52;;
36725;SDS011;44936;52.086;5.150;2022-09-02T13:03:42;1.23;;;0.80;;
36725;SDS011;44936;52.086;5.150;2022-09-02T13:06:16;1.33;;;0.65;;
36725;SDS011;44936;52.086;5.150;2022-09-02T13:13:55;0.70;;;0.57;;
36725;SDS011;44936;52.086;5.150;2022-09-02T13:19:17;1.95;;;0.70;;
36725;SDS011;44936;52.086;5.150;2022-09-02T13:32:40;2.45;;;0.40;;
36725;SDS011;44936;52.086;5.150;2022-09-02T13:35:07;1.23;;;0.70;;
36725;SDS011;44936;52.086;5.150;2022-09-02T13:37:42;3.63;;;0.52;;
36725;SDS011;44936;52.086;5.150;2022-09-02T13:42:46;2.60;;;0.60;;
36725;SDS011;44936;52.086;5.150;2022-09-02T13:45:20;4.45;;;1.10;;
36725;SDS011;44936;52.086;5.150;2022-09-02T13:47:58;1.02;;;0.90;;
36725;SDS011;44936;52.086;5.150;2022-09-02T13:50:26;0.50;;;0.50;;
36725;SDS011;44936;52.086;5.150;2022-09-02T13:52:58;0.80;;;0.65;;
36725;SDS011;44936;52.086;5.150;2022-09-02T13:57:57;0.53;;;0.53;;
36725;SDS011;44936;52.086;5.150;2022-09-02T14:00:40;0.55;;;0.40;;
36725;SDS011;44936;52.086;5.150;2022-09-02T14:03:11;1.77;;;0.50;;
36725;SDS011;44936;52.086;5.150;2022-09-02T14:05:37;1.05;;;0.70;;
36725;SDS011;44936;52.086;5.150;2022-09-02T14:08:05;0.70;;;0.40;;
36725;SDS011;44936;52.086;5.150;2022-09-02T14:10:31;0.55;;;0.43;;
36725;SDS011;44936;52.086;5.150;2022-09-02T14:12:58;0.85;;;0.50;;
36725;SDS011;44936;52.086;5.150;2022-09-02T14:15:29;1.02;;;0.70;;
36725;SDS011;44936;52.086;5.150;2022-09-02T14:18:05;2.10;;;0.70;;
36725;SDS011;44936;52.086;5.150;2022-09-02T14:20:30;1.60;;;0.70;;
36725;SDS011;44936;52.086;5.150;2022-09-02T14:22:56;0.67;;;0.50;;
36725;SDS011;44936;52.086;5.150;2022-09-02T14:25:22;0.82;;;0.50;;
36725;SDS011;44936;52.086;5.150;2022-09-02T14:27:52;1.02;;;0.73;;
36725;SDS011;44936;52.086;5.150;2022-09-02T14:30:29;1.45;;;0.68;;
36725;SDS011;44936;52.086;5.150;2022-09-02T14:35:38;1.83;;;0.88;;
36725;SDS011;44936;52.086;5.150;2022-09-02T14:38:04;2.75;;;0.98;;
36725;SDS011;44936;52.086;5.150;2022-09-02T14:40:33;1.03;;;0.80;;
36725;SDS011;44936;52.086;5.150;2022-09-02T14:42:59;1.48;;;0.63;;
36725;SDS011;44936;52.086;5.150;2022-09-02T14:45:25;2.00;;;0.70;;
36725;SDS011;44936;52.086;5.150;2022-09-02T14:47:51;2.33;;;0.82;;
36725;SDS011;44936;52.086;5.150;2022-09-02T14:50:25;0.90;;;0.88;;
36725;SDS011;44936;52.086;5.150;2022-09-02T14:52:52;0.80;;;0.60;;
36725;SDS011;44936;52.086;5.150;2022-09-02T14:58:03;1.05;;;0.70;;
36725;SDS011;44936;52.086;5.150;2022-09-02T15:00:28;1.50;;;0.60;;
36725;SDS011;44936;52.086;5.150;2022-09-02T15:02:56;2.15;;;0.95;;
36725;SDS011;44936;52.086;5.150;2022-09-02T15:05:24;1.13;;;0.80;;
36725;SDS011;44936;52.086;5.150;2022-09-02T15:07:50;1.15;;;0.70;;
36725;SDS011;44936;52.086;5.150;2022-09-02T15:10:15;0.95;;;0.50;;
36725;SDS011;44936;52.086;5.150;2022-09-02T15:12:48;0.80;;;0.80;;
36725;SDS011;44936;52.086;5.150;2022-09-02T15:15:13;1.40;;;1.00;;
36725;SDS011;44936;52.086;5.150;2022-09-02T15:17:38;2.30;;;0.70;;
36725;SDS011;44936;52.086;5.150;2022-09-02T15:20:04;0.73;;;0.60;;
36725;SDS011;44936;52.086;5.150;2022-09-02T15:22:31;0.70;;;0.63;;
36725;SDS011;44936;52.086;5.150;2022-09-02T15:24:56;0.63;;;0.60;;
36725;SDS011;44936;52.086;5.150;2022-09-02T15:27:21;0.63;;;0.60;;
36725;SDS011;44936;52.086;5.150;2022-09-02T15:29:47;0.43;;;0.40;;
36725;SDS011;44936;52.086;5.150;2022-09-02T15:32:12;0.70;;;0.60;;
36725;SDS011;44936;52.086;5.150;2022-09-02T15:34:37;0.73;;;0.67;;
36725;SDS011;44936;52.086;5.150;2022-09-02T15:37:03;0.77;;;0.60;;
36725;SDS011;44936;52.086;5.150;2022-09-02T15:39:28;0.70;;;0.70;;
36725;SDS011;44936;52.086;5.150;2022-09-02T15:41:54;0.38;;;0.38;;
36725;SDS011;44936;52.086;5.150;2022-09-02T15:44:20;0.82;;;0.50;;
36725;SDS011;44936;52.086;5.150;2022-09-02T15:46:45;1.55;;;0.70;;
36725;SDS011;44936;52.086;5.150;2022-09-02T15:49:12;3.33;;;0.47;;
36725;SDS011;44936;52.086;5.150;2022-09-02T15:51:39;0.73;;;0.60;;
36725;SDS011;44936;52.086;5.150;2022-09-02T15:54:09;0.40;;;0.40;;
36725;SDS011;44936;52.086;5.150;2022-09-02T15:56:36;4.15;;;0.90;;
36725;SDS011;44936;52.086;5.150;2022-09-02T15:59:03;1.35;;;0.88;;
36725;SDS011;44936;52.086;5.150;2022-09-02T16:01:32;0.70;;;0.60;;
36725;SDS011;44936;52.086;5.150;2022-09-02T16:03:58;3.28;;;0.60;;
36725;SDS011;44936;52.086;5.150;2022-09-02T16:06:24;0.63;;;0.50;;
36725;SDS011;44936;52.086;5.150;2022-09-02T16:08:49;0.70;;;0.60;;
36725;SDS011;44936;52.086;5.150;2022-09-02T16:11:15;0.52;;;0.50;;
36725;SDS011;44936;52.086;5.150;2022-09-02T16:13:40;0.93;;;0.50;;
36725;SDS011;44936;52.086;5.150;2022-09-02T16:16:07;0.82;;;0.60;;
36725;SDS011;44936;52.086;5.150;2022-09-02T16:18:33;0.85;;;0.82;;
36725;SDS011;44936;52.086;5.150;2022-09-02T16:21:00;0.80;;;0.60;;
36725;SDS011;44936;52.086;5.150;2022-09-02T16:23:35;0.95;;;0.60;;
36725;SDS011;44936;52.086;5.150;2022-09-02T16:26:15;0.50;;;0.50;;
36725;SDS011;44936;52.086;5.150;2022-09-02T16:28:42;0.63;;;0.55;;
36725;SDS011;44936;52.086;5.150;2022-09-02T16:31:08;1.20;;;0.60;;
36725;SDS011;44936;52.086;5.150;2022-09-02T16:33:34;2.83;;;0.90;;
36725;SDS011;44936;52.086;5.150;2022-09-02T16:36:01;0.60;;;0.60;;
36725;SDS011;44936;52.086;5.150;2022-09-02T16:38:29;1.50;;;0.77;;
36725;SDS011;44936;52.086;5.150;2022-09-02T16:40:54;2.22;;;0.40;;
36725;SDS011;44936;52.086;5.150;2022-09-02T16:43:21;1.17;;;0.45;;
36725;SDS011;44936;52.086;5.150;2022-09-02T16:45:47;0.93;;;0.68;;
36725;SDS011;44936;52.086;5.150;2022-09-02T16:48:12;1.05;;;0.60;;
36725;SDS011;44936;52.086;5.150;2022-09-02T16:50:38;0.60;;;0.52;;